sensor_id;sensor_type;location;lat;lon;timestamp;P1;durP1;ratioP1;P2;durP2;ratioP2
44276;SDS011;29973;43.742;1.236;2023-04-08T00:01:05;8.85;;;4.30;;
44276;SDS011;29973;43.742;1.236;2023-04-08T00:03:31;11.77;;;4.78;;
44276;SDS011;29973;43.742;1.236;2023-04-08T00:05:57;9.82;;;4.88;;
44276;SDS011;29973;43.742;1.236;2023-04-08T00:08:24;7.40;;;4.43;;
44276;SDS011;29973;43.742;1.236;2023-04-08T00:10:50;7.68;;;4.50;;
44276;SDS011;29973;43.742;1.236;2023-04-08T00:13:16;7.32;;;4.22;;
44276;SDS011;29973;43.742;1.236;2023-04-08T00:15:41;5.25;;;3.95;;
44276;SDS011;29973;43.742;1.236;2023-04-08T00:18:07;7.03;;;4.15;;
44276;SDS011;29973;43.742;1.236;2023-04-08T00:20:33;7.25;;;4.28;;
44276;SDS011;29973;43.742;1.236;2023-04-08T00:22:58;7.43;;;4.03;;
44276;SDS011;29973;43.742;1.236;2023-04-08T00:25:24;5.50;;;3.70;;
44276;SDS011;29973;43.742;1.236;2023-04-08T00:27:50;6.78;;;3.92;;
44276;SDS011;29973;43.742;1.236;2023-04-08T00:30:15;6.97;;;3.65;;
44276;SDS011;29973;43.742;1.236;2023-04-08T00:32:41;6.47;;;4.18;;
44276;SDS011;29973;43.742;1.236;2023-04-08T00:35:07;10.65;;;4.53;;
44276;SDS011;29973;43.742;1.236;2023-04-08T00:37:33;10.27;;;4.57;;
44276;SDS011;29973;43.742;1.236;2023-04-08T00:39:59;7.30;;;4.20;;
44276;SDS011;29973;43.742;1.236;2023-04-08T00:42:25;6.65;;;3.88;;
44276;SDS011;29973;43.742;1.236;2023-04-08T00:44:51;7.50;;;4.30;;
44276;SDS011;29973;43.742;1.236;2023-04-08T00:47:16;6.47;;;3.72;;
44276;SDS011;29973;43.742;1.236;2023-04-08T00:49:43;6.82;;;4.15;;
44276;SDS011;29973;43.742;1.236;2023-04-08T00:52:09;4.43;;;3.40;;
44276;SDS011;29973;43.742;1.236;2023-04-08T00:54:35;5.55;;;3.47;;
44276;SDS011;29973;43.742;1.236;2023-04-08T00:57:01;5.90;;;3.88;;
44276;SDS011;29973;43.742;1.236;2023-04-08T00:59:29;5.95;;;3.88;;
44276;SDS011;29973;43.742;1.236;2023-04-08T01:07:16;5.00;;;3.83;;
44276;SDS011;29973;43.742;1.236;2023-04-08T01:09:46;5.13;;;3.60;;
44276;SDS011;29973;43.742;1.236;2023-04-08T01:15:05;5.13;;;3.40;;
44276;SDS011;29973;43.742;1.236;2023-04-08T01:17:32;8.02;;;3.97;;
44276;SDS011;29973;43.742;1.236;2023-04-08T01:20:00;5.68;;;3.25;;
44276;SDS011;29973;43.742;1.236;2023-04-08T01:27:51;7.03;;;3.47;;
44276;SDS011;29973;43.742;1.236;2023-04-08T01:30:21;10.88;;;3.47;;
44276;SDS011;29973;43.742;1.236;2023-04-08T01:32:49;5.32;;;3.35;;
44276;SDS011;29973;43.742;1.236;2023-04-08T01:35:17;7.57;;;3.60;;
44276;SDS011;29973;43.742;1.236;2023-04-08T01:37:43;4.80;;;2.95;;
44276;SDS011;29973;43.742;1.236;2023-04-08T01:40:11;6.22;;;3.45;;
44276;SDS011;29973;43.742;1.236;2023-04-08T01:42:37;4.93;;;3.40;;
44276;SDS011;29973;43.742;1.236;2023-04-08T01:45:04;5.13;;;3.10;;
44276;SDS011;29973;43.742;1.236;2023-04-08T01:47:31;6.25;;;3.95;;
44276;SDS011;29973;43.742;1.236;2023-04-08T01:49:58;4.85;;;3.40;;
44276;SDS011;29973;43.742;1.236;2023-04-08T01:52:25;6.55;;;3.45;;
44276;SDS011;29973;43.742;1.236;2023-04-08T01:54:52;5.68;;;3.20;;
44276;SDS011;29973;43.742;1.236;2023-04-08T01:57:21;7.25;;;3.80;;
44276;SDS011;29973;43.742;1.236;2023-04-08T01:59:49;4.72;;;3.40;;
44276;SDS011;29973;43.742;1.236;2023-04-08T02:02:18;3.80;;;3.00;;
44276;SDS011;29973;43.742;1.236;2023-04-08T02:04:46;4.25;;;3.15;;
44276;SDS011;29973;43.742;1.236;2023-04-08T02:07:12;7.82;;;3.00;;
44276;SDS011;29973;43.742;1.236;2023-04-08T02:09:38;3.60;;;3.25;;
44276;SDS011;29973;43.742;1.236;2023-04-08T02:12:04;5.38;;;2.85;;
44276;SDS011;29973;43.742;1.236;2023-04-08T02:14:30;5.07;;;3.33;;
44276;SDS011;29973;43.742;1.236;2023-04-08T02:19:45;7.30;;;3.00;;
44276;SDS011;29973;43.742;1.236;2023-04-08T02:22:22;10.20;;;3.22;;
44276;SDS011;29973;43.742;1.236;2023-04-08T02:24:54;4.57;;;3.00;;
44276;SDS011;29973;43.742;1.236;2023-04-08T02:27:22;6.72;;;2.95;;
44276;SDS011;29973;43.742;1.236;2023-04-08T02:29:49;4.47;;;2.90;;
44276;SDS011;29973;43.742;1.236;2023-04-08T02:32:18;7.57;;;3.13;;
44276;SDS011;29973;43.742;1.236;2023-04-08T02:34:48;6.03;;;3.60;;
44276;SDS011;29973;43.742;1.236;2023-04-08T02:37:15;7.15;;;2.95;;
44276;SDS011;29973;43.742;1.236;2023-04-08T02:39:41;5.88;;;3.22;;
44276;SDS011;29973;43.742;1.236;2023-04-08T02:42:06;7.18;;;3.05;;
44276;SDS011;29973;43.742;1.236;2023-04-08T02:44:32;5.13;;;3.15;;
44276;SDS011;29973;43.742;1.236;2023-04-08T02:46:57;9.82;;;3.25;;
44276;SDS011;29973;43.742;1.236;2023-04-08T02:49:23;5.97;;;3.63;;
44276;SDS011;29973;43.742;1.236;2023-04-08T02:51:49;6.28;;;3.30;;
44276;SDS011;29973;43.742;1.236;2023-04-08T02:54:14;4.60;;;3.38;;
44276;SDS011;29973;43.742;1.236;2023-04-08T02:56:40;5.35;;;3.20;;
44276;SDS011;29973;43.742;1.236;2023-04-08T02:59:06;4.70;;;3.25;;
44276;SDS011;29973;43.742;1.236;2023-04-08T03:01:32;6.60;;;3.90;;
44276;SDS011;29973;43.742;1.236;2023-04-08T03:03:57;5.03;;;3.22;;
44276;SDS011;29973;43.742;1.236;2023-04-08T03:06:23;4.93;;;3.45;;
44276;SDS011;29973;43.742;1.236;2023-04-08T03:08:48;6.60;;;3.35;;
44276;SDS011;29973;43.742;1.236;2023-04-08T03:11:14;6.88;;;4.03;;
44276;SDS011;29973;43.742;1.236;2023-04-08T03:13:40;9.18;;;3.63;;
44276;SDS011;29973;43.742;1.236;2023-04-08T03:16:06;9.07;;;3.92;;
44276;SDS011;29973;43.742;1.236;2023-04-08T03:18:32;5.15;;;3.58;;
44276;SDS011;29973;43.742;1.236;2023-04-08T03:20:57;4.07;;;3.42;;
44276;SDS011;29973;43.742;1.236;2023-04-08T03:23:23;4.90;;;3.28;;
44276;SDS011;29973;43.742;1.236;2023-04-08T03:25:49;3.92;;;3.13;;
44276;SDS011;29973;43.742;1.236;2023-04-08T03:28:15;5.75;;;3.75;;
44276;SDS011;29973;43.742;1.236;2023-04-08T03:30:40;5.47;;;3.30;;
44276;SDS011;29973;43.742;1.236;2023-04-08T03:33:06;5.82;;;4.00;;
44276;SDS011;29973;43.742;1.236;2023-04-08T03:35:32;8.73;;;3.88;;
44276;SDS011;29973;43.742;1.236;2023-04-08T03:37:58;6.28;;;3.20;;
44276;SDS011;29973;43.742;1.236;2023-04-08T03:40:24;4.43;;;3.72;;
44276;SDS011;29973;43.742;1.236;2023-04-08T03:42:50;7.53;;;4.03;;
44276;SDS011;29973;43.742;1.236;2023-04-08T03:45:15;7.00;;;4.35;;
44276;SDS011;29973;43.742;1.236;2023-04-08T03:47:41;6.95;;;3.95;;
44276;SDS011;29973;43.742;1.236;2023-04-08T03:50:07;7.68;;;3.95;;
44276;SDS011;29973;43.742;1.236;2023-04-08T03:52:33;5.82;;;4.15;;
44276;SDS011;29973;43.742;1.236;2023-04-08T03:54:58;6.05;;;4.10;;
44276;SDS011;29973;43.742;1.236;2023-04-08T03:57:24;7.47;;;4.10;;
44276;SDS011;29973;43.742;1.236;2023-04-08T03:59:50;10.50;;;4.20;;
44276;SDS011;29973;43.742;1.236;2023-04-08T04:02:15;8.57;;;3.70;;
44276;SDS011;29973;43.742;1.236;2023-04-08T04:04:41;5.88;;;3.80;;
44276;SDS011;29973;43.742;1.236;2023-04-08T04:07:07;5.05;;;3.47;;
44276;SDS011;29973;43.742;1.236;2023-04-08T04:09:32;9.63;;;4.50;;
44276;SDS011;29973;43.742;1.236;2023-04-08T04:11:59;6.03;;;4.20;;
44276;SDS011;29973;43.742;1.236;2023-04-08T04:14:24;6.05;;;4.50;;
44276;SDS011;29973;43.742;1.236;2023-04-08T04:16:50;7.75;;;5.00;;
44276;SDS011;29973;43.742;1.236;2023-04-08T04:19:16;9.15;;;4.28;;
44276;SDS011;29973;43.742;1.236;2023-04-08T04:21:42;10.82;;;4.47;;
44276;SDS011;29973;43.742;1.236;2023-04-08T04:24:08;9.13;;;4.32;;
44276;SDS011;29973;43.742;1.236;2023-04-08T04:26:34;5.88;;;3.92;;
44276;SDS011;29973;43.742;1.236;2023-04-08T04:28:59;9.07;;;4.22;;
44276;SDS011;29973;43.742;1.236;2023-04-08T04:31:25;7.72;;;5.00;;
44276;SDS011;29973;43.742;1.236;2023-04-08T04:33:51;8.00;;;4.50;;
44276;SDS011;29973;43.742;1.236;2023-04-08T04:36:16;6.05;;;4.65;;
44276;SDS011;29973;43.742;1.236;2023-04-08T04:38:43;10.20;;;4.35;;
44276;SDS011;29973;43.742;1.236;2023-04-08T04:41:09;8.05;;;4.75;;
44276;SDS011;29973;43.742;1.236;2023-04-08T04:43:35;8.80;;;3.88;;
44276;SDS011;29973;43.742;1.236;2023-04-08T04:46:01;10.48;;;4.13;;
44276;SDS011;29973;43.742;1.236;2023-04-08T04:48:31;6.07;;;4.25;;
44276;SDS011;29973;43.742;1.236;2023-04-08T04:50:57;10.57;;;4.40;;
44276;SDS011;29973;43.742;1.236;2023-04-08T04:53:25;8.40;;;4.75;;
44276;SDS011;29973;43.742;1.236;2023-04-08T04:55:51;8.25;;;4.90;;
44276;SDS011;29973;43.742;1.236;2023-04-08T04:58:17;6.68;;;4.25;;
44276;SDS011;29973;43.742;1.236;2023-04-08T05:00:43;7.88;;;4.63;;
44276;SDS011;29973;43.742;1.236;2023-04-08T05:03:10;8.63;;;5.25;;
44276;SDS011;29973;43.742;1.236;2023-04-08T05:05:36;10.32;;;5.00;;
44276;SDS011;29973;43.742;1.236;2023-04-08T05:08:01;6.75;;;4.60;;
44276;SDS011;29973;43.742;1.236;2023-04-08T05:10:27;7.72;;;4.63;;
44276;SDS011;29973;43.742;1.236;2023-04-08T05:12:53;8.57;;;4.90;;
44276;SDS011;29973;43.742;1.236;2023-04-08T05:15:18;12.80;;;5.05;;
44276;SDS011;29973;43.742;1.236;2023-04-08T05:17:45;8.55;;;4.85;;
44276;SDS011;29973;43.742;1.236;2023-04-08T05:20:10;7.35;;;4.70;;
44276;SDS011;29973;43.742;1.236;2023-04-08T05:22:36;8.55;;;4.63;;
44276;SDS011;29973;43.742;1.236;2023-04-08T05:25:02;8.73;;;5.07;;
44276;SDS011;29973;43.742;1.236;2023-04-08T05:27:29;10.73;;;5.90;;
44276;SDS011;29973;43.742;1.236;2023-04-08T05:29:54;7.25;;;5.07;;
44276;SDS011;29973;43.742;1.236;2023-04-08T05:32:20;9.77;;;5.40;;
44276;SDS011;29973;43.742;1.236;2023-04-08T05:34:45;8.82;;;5.78;;
44276;SDS011;29973;43.742;1.236;2023-04-08T05:37:11;15.77;;;6.00;;
44276;SDS011;29973;43.742;1.236;2023-04-08T05:39:37;7.55;;;5.55;;
44276;SDS011;29973;43.742;1.236;2023-04-08T05:42:02;11.15;;;6.00;;
44276;SDS011;29973;43.742;1.236;2023-04-08T05:44:28;11.00;;;5.57;;
44276;SDS011;29973;43.742;1.236;2023-04-08T05:46:54;15.10;;;5.80;;
44276;SDS011;29973;43.742;1.236;2023-04-08T05:49:21;10.65;;;5.28;;
44276;SDS011;29973;43.742;1.236;2023-04-08T05:51:48;9.32;;;4.85;;
44276;SDS011;29973;43.742;1.236;2023-04-08T05:54:14;11.95;;;5.32;;
44276;SDS011;29973;43.742;1.236;2023-04-08T05:56:40;8.77;;;4.65;;
44276;SDS011;29973;43.742;1.236;2023-04-08T05:59:05;7.47;;;5.32;;
44276;SDS011;29973;43.742;1.236;2023-04-08T06:01:31;8.70;;;4.97;;
44276;SDS011;29973;43.742;1.236;2023-04-08T06:03:57;8.25;;;4.45;;
44276;SDS011;29973;43.742;1.236;2023-04-08T06:06:23;7.97;;;4.90;;
44276;SDS011;29973;43.742;1.236;2023-04-08T06:08:50;10.90;;;5.10;;
44276;SDS011;29973;43.742;1.236;2023-04-08T06:11:15;7.40;;;5.13;;
44276;SDS011;29973;43.742;1.236;2023-04-08T06:13:41;9.15;;;4.88;;
44276;SDS011;29973;43.742;1.236;2023-04-08T06:16:13;6.60;;;5.07;;
44276;SDS011;29973;43.742;1.236;2023-04-08T06:18:41;6.13;;;4.35;;
44276;SDS011;29973;43.742;1.236;2023-04-08T06:21:07;6.93;;;4.47;;
44276;SDS011;29973;43.742;1.236;2023-04-08T06:23:33;10.63;;;4.38;;
44276;SDS011;29973;43.742;1.236;2023-04-08T06:25:58;8.20;;;4.78;;
44276;SDS011;29973;43.742;1.236;2023-04-08T06:28:24;8.13;;;4.45;;
44276;SDS011;29973;43.742;1.236;2023-04-08T06:30:50;6.85;;;4.18;;
44276;SDS011;29973;43.742;1.236;2023-04-08T06:33:15;6.95;;;4.55;;
44276;SDS011;29973;43.742;1.236;2023-04-08T06:35:41;9.32;;;5.93;;
44276;SDS011;29973;43.742;1.236;2023-04-08T06:38:07;6.88;;;4.45;;
44276;SDS011;29973;43.742;1.236;2023-04-08T06:40:33;8.50;;;4.97;;
44276;SDS011;29973;43.742;1.236;2023-04-08T06:42:58;8.38;;;4.63;;
44276;SDS011;29973;43.742;1.236;2023-04-08T06:45:24;6.93;;;5.05;;
44276;SDS011;29973;43.742;1.236;2023-04-08T06:47:50;8.60;;;5.43;;
44276;SDS011;29973;43.742;1.236;2023-04-08T06:50:16;6.22;;;4.20;;
44276;SDS011;29973;43.742;1.236;2023-04-08T06:52:42;9.25;;;4.22;;
44276;SDS011;29973;43.742;1.236;2023-04-08T06:55:07;5.32;;;3.78;;
44276;SDS011;29973;43.742;1.236;2023-04-08T06:57:33;5.07;;;3.58;;
44276;SDS011;29973;43.742;1.236;2023-04-08T06:59:59;5.05;;;3.53;;
44276;SDS011;29973;43.742;1.236;2023-04-08T07:02:25;4.25;;;3.10;;
44276;SDS011;29973;43.742;1.236;2023-04-08T07:04:51;8.18;;;3.70;;
44276;SDS011;29973;43.742;1.236;2023-04-08T07:07:16;5.15;;;2.70;;
44276;SDS011;29973;43.742;1.236;2023-04-08T07:09:42;9.55;;;3.78;;
44276;SDS011;29973;43.742;1.236;2023-04-08T07:12:10;7.13;;;3.35;;
44276;SDS011;29973;43.742;1.236;2023-04-08T07:14:36;2.80;;;2.60;;
44276;SDS011;29973;43.742;1.236;2023-04-08T07:17:02;6.53;;;2.65;;
44276;SDS011;29973;43.742;1.236;2023-04-08T07:19:27;4.53;;;2.50;;
44276;SDS011;29973;43.742;1.236;2023-04-08T07:21:53;4.97;;;2.60;;
44276;SDS011;29973;43.742;1.236;2023-04-08T07:24:19;3.03;;;2.28;;
44276;SDS011;29973;43.742;1.236;2023-04-08T07:26:45;7.53;;;2.38;;
44276;SDS011;29973;43.742;1.236;2023-04-08T07:29:10;3.45;;;2.00;;
44276;SDS011;29973;43.742;1.236;2023-04-08T07:31:36;4.78;;;2.28;;
44276;SDS011;29973;43.742;1.236;2023-04-08T07:34:02;4.07;;;1.90;;
44276;SDS011;29973;43.742;1.236;2023-04-08T07:36:27;3.80;;;2.17;;
44276;SDS011;29973;43.742;1.236;2023-04-08T07:39:07;2.88;;;2.35;;
44276;SDS011;29973;43.742;1.236;2023-04-08T07:41:32;5.75;;;3.08;;
44276;SDS011;29973;43.742;1.236;2023-04-08T07:43:58;5.25;;;3.00;;
44276;SDS011;29973;43.742;1.236;2023-04-08T07:46:24;8.32;;;3.10;;
44276;SDS011;29973;43.742;1.236;2023-04-08T07:48:50;4.05;;;2.60;;
44276;SDS011;29973;43.742;1.236;2023-04-08T07:51:16;5.05;;;2.47;;
44276;SDS011;29973;43.742;1.236;2023-04-08T07:53:42;4.95;;;3.15;;
44276;SDS011;29973;43.742;1.236;2023-04-08T07:56:12;4.25;;;2.97;;
44276;SDS011;29973;43.742;1.236;2023-04-08T07:58:39;4.90;;;3.00;;
44276;SDS011;29973;43.742;1.236;2023-04-08T08:01:18;4.85;;;2.88;;
44276;SDS011;29973;43.742;1.236;2023-04-08T08:03:45;6.13;;;2.42;;
44276;SDS011;29973;43.742;1.236;2023-04-08T08:06:11;10.02;;;3.15;;
44276;SDS011;29973;43.742;1.236;2023-04-08T08:08:37;4.65;;;2.78;;
44276;SDS011;29973;43.742;1.236;2023-04-08T08:11:03;5.60;;;2.78;;
44276;SDS011;29973;43.742;1.236;2023-04-08T08:13:29;4.00;;;2.90;;
44276;SDS011;29973;43.742;1.236;2023-04-08T08:15:54;5.30;;;2.95;;
44276;SDS011;29973;43.742;1.236;2023-04-08T08:18:21;11.40;;;3.15;;
44276;SDS011;29973;43.742;1.236;2023-04-08T08:20:47;4.50;;;2.97;;
44276;SDS011;29973;43.742;1.236;2023-04-08T08:23:12;3.97;;;2.40;;
44276;SDS011;29973;43.742;1.236;2023-04-08T08:25:38;4.97;;;2.40;;
44276;SDS011;29973;43.742;1.236;2023-04-08T08:28:04;2.67;;;2.10;;
44276;SDS011;29973;43.742;1.236;2023-04-08T08:30:29;4.53;;;2.17;;
44276;SDS011;29973;43.742;1.236;2023-04-08T08:32:55;3.78;;;2.05;;
44276;SDS011;29973;43.742;1.236;2023-04-08T08:35:23;3.72;;;2.25;;
44276;SDS011;29973;43.742;1.236;2023-04-08T08:37:49;4.05;;;2.20;;
44276;SDS011;29973;43.742;1.236;2023-04-08T08:40:14;5.03;;;2.08;;
44276;SDS011;29973;43.742;1.236;2023-04-08T08:42:40;6.95;;;2.67;;
44276;SDS011;29973;43.742;1.236;2023-04-08T08:45:07;3.33;;;1.98;;
44276;SDS011;29973;43.742;1.236;2023-04-08T08:47:33;8.40;;;2.15;;
44276;SDS011;29973;43.742;1.236;2023-04-08T08:49:58;4.63;;;1.85;;
44276;SDS011;29973;43.742;1.236;2023-04-08T08:52:24;4.43;;;1.95;;
44276;SDS011;29973;43.742;1.236;2023-04-08T08:54:57;9.05;;;2.05;;
44276;SDS011;29973;43.742;1.236;2023-04-08T08:57:23;3.05;;;1.95;;
44276;SDS011;29973;43.742;1.236;2023-04-08T08:59:49;2.50;;;1.80;;
44276;SDS011;29973;43.742;1.236;2023-04-08T09:05:00;3.95;;;1.77;;
44276;SDS011;29973;43.742;1.236;2023-04-08T09:07:27;6.55;;;1.98;;
44276;SDS011;29973;43.742;1.236;2023-04-08T09:09:54;7.45;;;2.35;;
44276;SDS011;29973;43.742;1.236;2023-04-08T09:12:22;3.38;;;1.70;;
44276;SDS011;29973;43.742;1.236;2023-04-08T09:14:49;3.15;;;1.50;;
44276;SDS011;29973;43.742;1.236;2023-04-08T09:17:15;4.30;;;1.50;;
44276;SDS011;29973;43.742;1.236;2023-04-08T09:20:12;2.25;;;1.58;;
44276;SDS011;29973;43.742;1.236;2023-04-08T09:23:00;3.33;;;1.70;;
44276;SDS011;29973;43.742;1.236;2023-04-08T09:25:27;3.83;;;1.88;;
44276;SDS011;29973;43.742;1.236;2023-04-08T09:27:57;3.78;;;1.60;;
44276;SDS011;29973;43.742;1.236;2023-04-08T09:30:24;4.70;;;1.77;;
44276;SDS011;29973;43.742;1.236;2023-04-08T09:32:52;2.83;;;1.67;;
44276;SDS011;29973;43.742;1.236;2023-04-08T09:35:19;3.30;;;1.65;;
44276;SDS011;29973;43.742;1.236;2023-04-08T09:37:45;5.25;;;1.50;;
44276;SDS011;29973;43.742;1.236;2023-04-08T09:40:12;5.72;;;1.67;;
44276;SDS011;29973;43.742;1.236;2023-04-08T09:42:41;2.25;;;1.38;;
44276;SDS011;29973;43.742;1.236;2023-04-08T09:45:15;2.58;;;1.58;;
44276;SDS011;29973;43.742;1.236;2023-04-08T09:47:51;3.05;;;1.88;;
44276;SDS011;29973;43.742;1.236;2023-04-08T09:50:27;5.18;;;1.65;;
44276;SDS011;29973;43.742;1.236;2023-04-08T09:53:03;4.88;;;1.98;;
44276;SDS011;29973;43.742;1.236;2023-04-08T09:55:37;3.08;;;1.70;;
44276;SDS011;29973;43.742;1.236;2023-04-08T09:58:10;3.40;;;1.65;;
44276;SDS011;29973;43.742;1.236;2023-04-08T10:00:45;4.32;;;1.50;;
44276;SDS011;29973;43.742;1.236;2023-04-08T10:03:25;4.28;;;1.77;;
44276;SDS011;29973;43.742;1.236;2023-04-08T10:06:02;3.55;;;1.80;;
44276;SDS011;29973;43.742;1.236;2023-04-08T10:08:29;8.75;;;1.60;;
44276;SDS011;29973;43.742;1.236;2023-04-08T10:10:55;7.25;;;1.75;;
44276;SDS011;29973;43.742;1.236;2023-04-08T10:13:22;4.47;;;1.30;;
44276;SDS011;29973;43.742;1.236;2023-04-08T10:15:49;4.85;;;1.50;;
44276;SDS011;29973;43.742;1.236;2023-04-08T10:20:45;4.18;;;1.60;;
44276;SDS011;29973;43.742;1.236;2023-04-08T10:23:14;3.58;;;1.40;;
44276;SDS011;29973;43.742;1.236;2023-04-08T10:25:45;10.32;;;1.55;;
44276;SDS011;29973;43.742;1.236;2023-04-08T10:30:45;7.05;;;2.00;;
44276;SDS011;29973;43.742;1.236;2023-04-08T10:33:15;3.20;;;1.42;;
44276;SDS011;29973;43.742;1.236;2023-04-08T10:35:54;3.40;;;1.52;;
44276;SDS011;29973;43.742;1.236;2023-04-08T10:38:24;3.03;;;1.58;;
44276;SDS011;29973;43.742;1.236;2023-04-08T10:40:50;2.85;;;1.65;;
44276;SDS011;29973;43.742;1.236;2023-04-08T10:43:16;6.28;;;1.92;;
44276;SDS011;29973;43.742;1.236;2023-04-08T10:45:42;1.65;;;1.40;;
44276;SDS011;29973;43.742;1.236;2023-04-08T10:48:22;2.15;;;1.30;;
44276;SDS011;29973;43.742;1.236;2023-04-08T10:50:55;3.75;;;1.40;;
44276;SDS011;29973;43.742;1.236;2023-04-08T10:53:35;3.03;;;1.10;;
44276;SDS011;29973;43.742;1.236;2023-04-08T10:58:46;3.22;;;1.48;;
44276;SDS011;29973;43.742;1.236;2023-04-08T11:01:13;3.63;;;1.45;;
44276;SDS011;29973;43.742;1.236;2023-04-08T11:03:39;3.33;;;1.40;;
44276;SDS011;29973;43.742;1.236;2023-04-08T11:06:07;9.48;;;2.03;;
44276;SDS011;29973;43.742;1.236;2023-04-08T11:08:33;4.22;;;1.40;;
44276;SDS011;29973;43.742;1.236;2023-04-08T11:11:01;2.25;;;1.30;;
44276;SDS011;29973;43.742;1.236;2023-04-08T11:13:28;2.33;;;1.58;;
44276;SDS011;29973;43.742;1.236;2023-04-08T11:15:54;3.65;;;1.83;;
44276;SDS011;29973;43.742;1.236;2023-04-08T11:18:22;6.88;;;1.58;;
44276;SDS011;29973;43.742;1.236;2023-04-08T11:20:51;3.55;;;1.65;;
44276;SDS011;29973;43.742;1.236;2023-04-08T11:23:17;6.43;;;1.65;;
44276;SDS011;29973;43.742;1.236;2023-04-08T11:25:44;5.20;;;1.42;;
44276;SDS011;29973;43.742;1.236;2023-04-08T11:28:13;2.40;;;1.33;;
44276;SDS011;29973;43.742;1.236;2023-04-08T11:30:39;4.55;;;1.25;;
44276;SDS011;29973;43.742;1.236;2023-04-08T11:33:06;4.55;;;1.30;;
44276;SDS011;29973;43.742;1.236;2023-04-08T11:35:32;5.07;;;1.15;;
44276;SDS011;29973;43.742;1.236;2023-04-08T11:37:58;2.38;;;1.40;;
44276;SDS011;29973;43.742;1.236;2023-04-08T11:40:24;4.88;;;1.40;;
44276;SDS011;29973;43.742;1.236;2023-04-08T11:42:50;3.47;;;1.30;;
44276;SDS011;29973;43.742;1.236;2023-04-08T11:45:20;3.20;;;1.20;;
44276;SDS011;29973;43.742;1.236;2023-04-08T11:47:46;5.05;;;1.17;;
44276;SDS011;29973;43.742;1.236;2023-04-08T11:50:17;3.22;;;1.30;;
44276;SDS011;29973;43.742;1.236;2023-04-08T11:52:50;2.30;;;1.00;;
44276;SDS011;29973;43.742;1.236;2023-04-08T11:55:30;3.45;;;1.50;;
44276;SDS011;29973;43.742;1.236;2023-04-08T11:58:00;2.13;;;0.98;;
44276;SDS011;29973;43.742;1.236;2023-04-08T12:00:27;2.65;;;1.27;;
44276;SDS011;29973;43.742;1.236;2023-04-08T12:02:53;2.35;;;1.17;;
44276;SDS011;29973;43.742;1.236;2023-04-08T12:05:19;2.72;;;1.15;;
44276;SDS011;29973;43.742;1.236;2023-04-08T12:07:45;1.85;;;0.80;;
44276;SDS011;29973;43.742;1.236;2023-04-08T12:10:11;3.22;;;1.10;;
44276;SDS011;29973;43.742;1.236;2023-04-08T12:12:38;2.53;;;0.90;;
44276;SDS011;29973;43.742;1.236;2023-04-08T12:15:04;1.83;;;0.70;;
44276;SDS011;29973;43.742;1.236;2023-04-08T12:17:31;4.45;;;0.98;;
44276;SDS011;29973;43.742;1.236;2023-04-08T12:19:57;2.55;;;1.00;;
44276;SDS011;29973;43.742;1.236;2023-04-08T12:22:22;2.70;;;0.85;;
44276;SDS011;29973;43.742;1.236;2023-04-08T12:24:48;1.63;;;1.00;;
44276;SDS011;29973;43.742;1.236;2023-04-08T12:27:14;3.80;;;1.20;;
44276;SDS011;29973;43.742;1.236;2023-04-08T12:29:40;2.78;;;1.00;;
44276;SDS011;29973;43.742;1.236;2023-04-08T12:32:05;1.15;;;0.70;;
44276;SDS011;29973;43.742;1.236;2023-04-08T12:34:31;3.03;;;1.20;;
44276;SDS011;29973;43.742;1.236;2023-04-08T12:36:57;4.30;;;1.08;;
44276;SDS011;29973;43.742;1.236;2023-04-08T12:39:23;2.47;;;1.10;;
44276;SDS011;29973;43.742;1.236;2023-04-08T12:41:49;4.28;;;1.10;;
44276;SDS011;29973;43.742;1.236;2023-04-08T12:44:15;3.17;;;1.10;;
44276;SDS011;29973;43.742;1.236;2023-04-08T12:46:41;1.33;;;0.80;;
44276;SDS011;29973;43.742;1.236;2023-04-08T12:49:06;0.98;;;0.75;;
44276;SDS011;29973;43.742;1.236;2023-04-08T12:51:33;1.48;;;0.77;;
44276;SDS011;29973;43.742;1.236;2023-04-08T12:54:00;2.22;;;1.10;;
44276;SDS011;29973;43.742;1.236;2023-04-08T12:56:27;3.13;;;1.35;;
44276;SDS011;29973;43.742;1.236;2023-04-08T12:58:53;2.53;;;1.00;;
44276;SDS011;29973;43.742;1.236;2023-04-08T13:01:22;2.10;;;0.77;;
44276;SDS011;29973;43.742;1.236;2023-04-08T13:03:48;2.83;;;0.70;;
44276;SDS011;29973;43.742;1.236;2023-04-08T13:06:13;1.63;;;0.98;;
44276;SDS011;29973;43.742;1.236;2023-04-08T13:08:39;1.70;;;1.10;;
44276;SDS011;29973;43.742;1.236;2023-04-08T13:11:06;3.05;;;0.60;;
44276;SDS011;29973;43.742;1.236;2023-04-08T13:13:32;2.08;;;0.70;;
44276;SDS011;29973;43.742;1.236;2023-04-08T13:15:58;2.25;;;0.90;;
44276;SDS011;29973;43.742;1.236;2023-04-08T13:18:23;1.23;;;0.60;;
44276;SDS011;29973;43.742;1.236;2023-04-08T13:20:49;1.30;;;0.60;;
44276;SDS011;29973;43.742;1.236;2023-04-08T13:23:15;1.83;;;0.80;;
44276;SDS011;29973;43.742;1.236;2023-04-08T13:25:45;5.27;;;1.20;;
44276;SDS011;29973;43.742;1.236;2023-04-08T13:28:10;1.38;;;0.80;;
44276;SDS011;29973;43.742;1.236;2023-04-08T13:30:36;1.88;;;0.95;;
44276;SDS011;29973;43.742;1.236;2023-04-08T13:33:02;17.02;;;3.72;;
44276;SDS011;29973;43.742;1.236;2023-04-08T13:35:28;2.42;;;0.70;;
44276;SDS011;29973;43.742;1.236;2023-04-08T13:37:53;1.30;;;0.77;;
44276;SDS011;29973;43.742;1.236;2023-04-08T13:40:20;76.93;;;22.55;;
44276;SDS011;29973;43.742;1.236;2023-04-08T13:42:46;46.03;;;14.48;;
44276;SDS011;29973;43.742;1.236;2023-04-08T13:45:12;5.90;;;1.30;;
44276;SDS011;29973;43.742;1.236;2023-04-08T13:47:38;4.80;;;1.63;;
44276;SDS011;29973;43.742;1.236;2023-04-08T13:50:05;1.95;;;0.95;;
44276;SDS011;29973;43.742;1.236;2023-04-08T13:52:31;2.63;;;1.10;;
44276;SDS011;29973;43.742;1.236;2023-04-08T13:54:57;1.30;;;0.80;;
44276;SDS011;29973;43.742;1.236;2023-04-08T13:57:22;2.80;;;1.10;;
44276;SDS011;29973;43.742;1.236;2023-04-08T13:59:48;3.13;;;0.85;;
44276;SDS011;29973;43.742;1.236;2023-04-08T14:02:14;2.55;;;1.30;;
44276;SDS011;29973;43.742;1.236;2023-04-08T14:04:40;2.13;;;0.90;;
44276;SDS011;29973;43.742;1.236;2023-04-08T14:07:06;2.15;;;1.08;;
44276;SDS011;29973;43.742;1.236;2023-04-08T14:09:31;3.22;;;1.00;;
44276;SDS011;29973;43.742;1.236;2023-04-08T14:11:57;1.63;;;0.73;;
44276;SDS011;29973;43.742;1.236;2023-04-08T14:14:23;7.72;;;2.78;;
44276;SDS011;29973;43.742;1.236;2023-04-08T14:16:49;1.83;;;0.80;;
44276;SDS011;29973;43.742;1.236;2023-04-08T14:19:15;1.25;;;0.95;;
44276;SDS011;29973;43.742;1.236;2023-04-08T14:21:40;3.33;;;0.88;;
44276;SDS011;29973;43.742;1.236;2023-04-08T14:24:06;2.42;;;1.00;;
44276;SDS011;29973;43.742;1.236;2023-04-08T14:26:32;1.63;;;0.90;;
44276;SDS011;29973;43.742;1.236;2023-04-08T14:29:03;3.35;;;1.08;;
44276;SDS011;29973;43.742;1.236;2023-04-08T14:31:30;3.70;;;1.02;;
44276;SDS011;29973;43.742;1.236;2023-04-08T14:33:57;1.33;;;0.82;;
44276;SDS011;29973;43.742;1.236;2023-04-08T14:36:23;6.32;;;1.08;;
44276;SDS011;29973;43.742;1.236;2023-04-08T14:38:50;1.88;;;0.90;;
44276;SDS011;29973;43.742;1.236;2023-04-08T14:41:16;2.35;;;0.82;;
44276;SDS011;29973;43.742;1.236;2023-04-08T14:43:42;2.55;;;1.00;;
44276;SDS011;29973;43.742;1.236;2023-04-08T14:46:07;6.07;;;3.03;;
44276;SDS011;29973;43.742;1.236;2023-04-08T14:48:33;0.98;;;0.70;;
44276;SDS011;29973;43.742;1.236;2023-04-08T14:50:59;14.23;;;4.22;;
44276;SDS011;29973;43.742;1.236;2023-04-08T14:53:24;1.48;;;0.90;;
44276;SDS011;29973;43.742;1.236;2023-04-08T14:55:50;2.67;;;0.80;;
44276;SDS011;29973;43.742;1.236;2023-04-08T14:58:16;1.55;;;0.70;;
44276;SDS011;29973;43.742;1.236;2023-04-08T15:00:44;0.63;;;0.57;;
44276;SDS011;29973;43.742;1.236;2023-04-08T15:03:12;2.58;;;0.55;;
44276;SDS011;29973;43.742;1.236;2023-04-08T15:05:38;3.53;;;0.70;;
44276;SDS011;29973;43.742;1.236;2023-04-08T15:08:04;2.72;;;0.80;;
44276;SDS011;29973;43.742;1.236;2023-04-08T15:10:30;1.30;;;0.90;;